createdAt,value
2023-05-21T00:01:32.970Z,96730.40
2023-05-21T00:04:01.053Z,96728.95
2023-05-21T00:06:29.400Z,96727.77
2023-05-21T00:08:57.543Z,96728.91
2023-05-21T00:11:25.493Z,96723.97
2023-05-21T00:13:53.458Z,96719.48
2023-05-21T00:16:22.480Z,96717.73
2023-05-21T00:18:50.910Z,96718.07
2023-05-21T00:21:22.856Z,96715.96
2023-05-21T00:23:50.876Z,96719.11
2023-05-21T00:26:18.950Z,96714.05
2023-05-21T00:28:48.751Z,96714.83
2023-05-21T00:31:17.448Z,96712.54
2023-05-21T00:33:45.527Z,96709.39
2023-05-21T00:36:14.655Z,96710.96
2023-05-21T00:38:44.047Z,96711.88
2023-05-21T00:41:12.613Z,96709.70
2023-05-21T00:43:40.762Z,96706.94
2023-05-21T00:46:12.285Z,96709.61
2023-05-21T00:48:40.418Z,96711.11
2023-05-21T00:51:08.927Z,96710.27
2023-05-21T00:53:37.095Z,96707.85
2023-05-21T00:56:06.101Z,96709.23
2023-05-21T00:58:35.142Z,96707.66
2023-05-21T01:01:03.894Z,96700.52
2023-05-21T01:03:38.386Z,96701.54
2023-05-21T01:06:09.105Z,96697.38
2023-05-21T01:08:38.705Z,96699.77
2023-05-21T01:11:08.146Z,96702.09
2023-05-21T01:13:40.156Z,96700.27
2023-05-21T01:16:09.373Z,96696.57
2023-05-21T01:18:38.532Z,96694.77
2023-05-21T01:21:07.672Z,96691.74
2023-05-21T01:23:36.134Z,96686.72
2023-05-21T01:26:04.162Z,96686.92
2023-05-21T01:28:34.446Z,96684.98
2023-05-21T01:31:23.583Z,96682.81
2023-05-21T01:33:53.014Z,96682.23
2023-05-21T01:36:29.198Z,96686.95
2023-05-21T01:39:27.803Z,96681.23
2023-05-21T01:41:57.530Z,96683.10
2023-05-21T01:44:27.079Z,96680.56
2023-05-21T01:46:57.135Z,96680.42
2023-05-21T01:49:25.945Z,96677.27
2023-05-21T01:51:54.275Z,96675.70
2023-05-21T01:54:23.702Z,96672.09
2023-05-21T01:56:51.713Z,96668.33
2023-05-21T01:59:20.626Z,96665.48
2023-05-21T02:01:48.752Z,96665.42
2023-05-21T02:04:16.799Z,96666.64
2023-05-21T02:06:45.074Z,96666.05
2023-05-21T02:09:13.026Z,96667.71
2023-05-21T02:11:40.953Z,96664.87
2023-05-21T02:14:10.499Z,96663.30
2023-05-21T02:16:38.615Z,96664.37
2023-05-21T02:19:06.812Z,96665.91
2023-05-21T02:21:34.869Z,96667.02
2023-05-21T02:24:02.804Z,96665.86
2023-05-21T02:26:31.305Z,96665.61
2023-05-21T02:28:59.392Z,96662.16
2023-05-21T02:31:27.465Z,96660.86
2023-05-21T02:33:56.315Z,96659.52
2023-05-21T02:36:25.380Z,96657.54
2023-05-21T02:38:53.364Z,96659.88
2023-05-21T02:41:21.861Z,96657.64
2023-05-21T02:43:49.761Z,96656.84
2023-05-21T02:46:18.156Z,96651.55
2023-05-21T02:48:46.266Z,96646.42
2023-05-21T02:51:14.212Z,96644.94
2023-05-21T02:53:42.217Z,96644.10
2023-05-21T02:56:10.527Z,96641.82
2023-05-21T02:58:38.734Z,96640.88
2023-05-21T03:01:06.869Z,96642.77
2023-05-21T03:03:35.098Z,96642.35
2023-05-21T03:06:04.172Z,96643.91
2023-05-21T03:08:32.253Z,96639.42
2023-05-21T03:11:00.872Z,96641.67
2023-05-21T03:13:29.261Z,96640.32
2023-05-21T03:15:57.560Z,96639.52
2023-05-21T03:18:25.735Z,96639.98
2023-05-21T03:20:53.725Z,96637.98
2023-05-21T03:23:22.021Z,96635.98
2023-05-21T03:25:51.056Z,96636.36
2023-05-21T03:28:19.037Z,96636.61
2023-05-21T03:30:52.212Z,96637.38
2023-05-21T03:33:49.837Z,96637.58
2023-05-21T03:36:29.459Z,96634.36
2023-05-21T03:38:58.637Z,96635.14
2023-05-21T03:41:26.743Z,96634.16
2023-05-21T03:43:59.535Z,96630.12
2023-05-21T03:46:30.213Z,96632.98
2023-05-21T03:49:25.880Z,96631.58
2023-05-21T03:51:56.279Z,96633.19
2023-05-21T03:54:24.703Z,96633.27
2023-05-21T03:56:55.551Z,96632.63
2023-05-21T03:59:24.416Z,96632.63
2023-05-21T04:01:53.156Z,96632.13
2023-05-21T04:04:21.196Z,96633.14
2023-05-21T04:06:51.148Z,96632.55
2023-05-21T04:09:19.284Z,96633.65
2023-05-21T04:11:48.113Z,96635.80
2023-05-21T04:14:16.117Z,96631.52
2023-05-21T04:16:44.258Z,96631.89
2023-05-21T04:19:12.474Z,96636.38
2023-05-21T04:21:42.052Z,96635.96
2023-05-21T04:33:41.429Z,96632.11
2023-05-21T04:36:12.090Z,96635.02
2023-05-21T04:38:41.210Z,96634.15
2023-05-21T04:41:10.495Z,96634.97
2023-05-21T04:43:37.641Z,96634.45
2023-05-21T04:46:05.440Z,96636.17
2023-05-21T04:48:33.066Z,96633.02
2023-05-21T04:50:59.694Z,96636.23
2023-05-21T04:53:28.548Z,96636.61
2023-05-21T04:55:55.688Z,96639.48
2023-05-21T04:58:22.399Z,96638.29
2023-05-21T05:00:51.130Z,96638.52
2023-05-21T05:03:18.101Z,96640.14
2023-05-21T05:05:45.316Z,96642.35
2023-05-21T05:08:15.369Z,96642.09
2023-05-21T05:10:42.854Z,96639.34
2023-05-21T05:13:09.675Z,96636.23
2023-05-21T05:18:03.644Z,96629.79
2023-05-21T05:20:30.496Z,96633.88
2023-05-21T05:22:57.097Z,96635.40
2023-05-21T05:25:24.291Z,96634.88
2023-05-21T05:27:50.914Z,96636.92
2023-05-21T05:30:17.811Z,96634.96
2023-05-21T05:32:46.005Z,96630.55
2023-05-21T05:35:12.790Z,96629.38
2023-05-21T05:37:39.481Z,96629.65
2023-05-21T05:40:07.465Z,96628.80
2023-05-21T05:42:34.180Z,96625.79
2023-05-21T05:45:03.997Z,96623.53
2023-05-21T05:47:30.789Z,96623.10
2023-05-21T05:49:57.537Z,96621.87
2023-05-21T05:52:24.106Z,96622.15
2023-05-21T05:54:50.715Z,96618.27
2023-05-21T05:57:17.269Z,96615.15
2023-05-21T05:59:45.383Z,96612.73
2023-05-21T06:02:12.198Z,96613.92
2023-05-21T06:04:38.842Z,96618.22
2023-05-21T06:07:05.439Z,96612.39
2023-05-21T06:09:32.058Z,96614.95
2023-05-21T06:11:58.997Z,96614.88
2023-05-21T06:14:25.597Z,96616.55
2023-05-21T06:16:52.779Z,96618.11
2023-05-21T06:19:20.182Z,96621.81
2023-05-21T06:21:47.324Z,96615.36
2023-05-21T06:24:13.962Z,96617.09
2023-05-21T06:26:41.283Z,96617.88
2023-05-21T06:29:08.131Z,96614.80
2023-05-21T06:31:35.387Z,96613.95
2023-05-21T06:34:03.305Z,96612.67
2023-05-21T06:36:31.698Z,96611.75
2023-05-21T06:38:58.370Z,96609.52
2023-05-21T06:41:25.772Z,96606.88
2023-05-21T06:43:58.111Z,96603.14
2023-05-21T06:46:45.184Z,96606.25
2023-05-21T06:49:14.199Z,96608.65
2023-05-21T06:51:42.001Z,96605.40
2023-05-21T06:54:08.815Z,96601.73
2023-05-21T06:56:35.836Z,96598.92
2023-05-21T06:59:02.485Z,96598.77
2023-05-21T07:01:33.745Z,96597.19
2023-05-21T07:04:00.543Z,96593.27
2023-05-21T07:06:27.161Z,96592.23
2023-05-21T07:08:54.384Z,96592.64
2023-05-21T07:11:21.488Z,96588.18
2023-05-21T07:13:48.369Z,96588.27
2023-05-21T07:16:17.130Z,96585.84
2023-05-21T07:18:44.065Z,96585.02
2023-05-21T07:21:10.824Z,96588.83
2023-05-21T07:23:37.786Z,96588.41
2023-05-21T07:26:05.026Z,96586.99
2023-05-21T07:28:31.742Z,96580.55
2023-05-21T07:30:58.461Z,96580.11
2023-05-21T07:33:30.745Z,96579.09
2023-05-21T07:35:57.673Z,96578.75
2023-05-21T07:38:24.341Z,96581.70
2023-05-21T07:40:51.789Z,96580.08
2023-05-21T07:43:18.516Z,96581.39
2023-05-21T07:45:45.194Z,96580.98
2023-05-21T07:48:11.875Z,96586.46
2023-05-21T07:50:49.192Z,96582.30
2023-05-21T07:53:15.907Z,96583.30
2023-05-21T07:55:47.060Z,96586.02
2023-05-21T07:58:19.345Z,96586.10
2023-05-21T08:00:47.106Z,96588.91
2023-05-21T08:03:17.965Z,96586.75
2023-05-21T08:05:48.462Z,96586.90
2023-05-21T08:08:17.749Z,96587.34
2023-05-21T08:10:45.856Z,96586.69
2023-05-21T08:13:13.020Z,96582.87
2023-05-21T08:15:39.843Z,96584.57
2023-05-21T08:18:07.555Z,96585.80
2023-05-21T08:20:35.003Z,96586.40
2023-05-21T08:23:02.305Z,96586.05
2023-05-21T08:25:34.962Z,96588.06
2023-05-21T08:28:02.630Z,96579.74
2023-05-21T08:30:30.703Z,96583.20
2023-05-21T08:32:58.961Z,96578.98
2023-05-21T08:35:26.168Z,96578.63
2023-05-21T08:38:01.361Z,96579.34
2023-05-21T08:40:49.700Z,96574.70
2023-05-21T08:43:16.981Z,96574.44
2023-05-21T08:45:54.385Z,96575.71
2023-05-21T08:48:25.103Z,96572.52
2023-05-21T08:50:53.953Z,96574.59
2023-05-21T08:53:29.039Z,96575.99
2023-05-21T08:55:56.949Z,96575.02
2023-05-21T08:58:25.099Z,96574.90
2023-05-21T09:00:54.343Z,96573.45
2023-05-21T09:03:23.890Z,96576.77
2023-05-21T09:05:53.124Z,96574.11
2023-05-21T09:08:49.392Z,96573.70
2023-05-21T09:11:21.947Z,96572.37
2023-05-21T09:13:54.260Z,96572.20
2023-05-21T09:16:26.523Z,96570.96
2023-05-21T09:18:53.623Z,96573.52
2023-05-21T09:21:26.217Z,96574.72
2023-05-21T09:23:58.843Z,96571.80
2023-05-21T09:26:25.943Z,96575.26
2023-05-21T09:28:57.676Z,96575.01
2023-05-21T09:31:25.392Z,96575.70
2023-05-21T09:33:52.771Z,96572.38
2023-05-21T09:36:21.271Z,96569.33
2023-05-21T09:38:51.338Z,96574.14
2023-05-21T09:41:21.868Z,96572.46
2023-05-21T09:43:48.920Z,96568.45
2023-05-21T09:46:19.957Z,96568.90
2023-05-21T09:48:46.585Z,96570.45
2023-05-21T09:51:16.091Z,96573.60
2023-05-21T09:53:51.917Z,96572.59
2023-05-21T09:56:22.228Z,96568.84
2023-05-21T09:59:02.752Z,96567.64
2023-05-21T10:01:33.873Z,96567.05
2023-05-21T10:04:06.368Z,96564.29
2023-05-21T10:06:37.774Z,96563.48
2023-05-21T10:09:11.245Z,96562.38
2023-05-21T10:11:40.123Z,96562.28
2023-05-21T10:14:10.310Z,96559.50
2023-05-21T10:16:37.186Z,96557.48
2023-05-21T10:19:10.144Z,96559.31
2023-05-21T10:21:36.794Z,96565.10
2023-05-21T10:24:04.483Z,96561.41
2023-05-21T10:26:31.644Z,96558.05
2023-05-21T10:28:59.605Z,96553.43
2023-05-21T10:31:27.236Z,96557.77
2023-05-21T10:33:55.441Z,96557.29
2023-05-21T10:36:24.732Z,96554.27
2023-05-21T10:38:51.551Z,96557.55
2023-05-21T10:41:21.331Z,96559.70
2023-05-21T10:44:19.008Z,96553.31
2023-05-21T10:47:15.526Z,96555.17
2023-05-21T10:50:01.055Z,96549.60
2023-05-21T10:52:46.084Z,96548.28
2023-05-21T10:55:35.502Z,96553.05
2023-05-21T10:58:51.124Z,96551.71
2023-05-21T11:01:18.790Z,96555.01
2023-05-21T11:03:49.914Z,96549.33
2023-05-21T11:06:25.593Z,96548.61
2023-05-21T11:09:22.871Z,96544.88
2023-05-21T11:11:57.442Z,96539.36
2023-05-21T11:14:36.053Z,96541.20
2023-05-21T11:17:08.857Z,96542.40
2023-05-21T11:19:50.681Z,96541.63
2023-05-21T11:22:25.839Z,96542.13
2023-05-21T11:24:55.155Z,96540.15
2023-05-21T11:27:39.242Z,96538.25
2023-05-21T11:30:14.610Z,96535.69
2023-05-21T11:33:14.908Z,96535.76
2023-05-21T11:35:44.376Z,96540.38
2023-05-21T11:38:11.069Z,96535.73
2023-05-21T11:40:38.126Z,96535.74
2023-05-21T11:43:05.014Z,96528.08
2023-05-21T11:45:32.566Z,96532.64
2023-05-21T11:47:59.986Z,96534.05
2023-05-21T11:50:26.861Z,96535.33
2023-05-21T11:52:53.568Z,96533.00
2023-05-21T11:55:25.298Z,96531.38
2023-05-21T11:57:53.557Z,96530.55
2023-05-21T12:00:20.948Z,96529.83
2023-05-21T12:02:51.006Z,96530.33
2023-05-21T12:05:18.078Z,96533.77
2023-05-21T12:07:51.394Z,96531.02
2023-05-21T12:10:22.503Z,96530.70
2023-05-21T12:12:55.767Z,96527.90
2023-05-21T12:15:25.230Z,96521.65
2023-05-21T12:17:52.321Z,96522.38
2023-05-21T12:20:19.352Z,96521.03
2023-05-21T12:22:48.272Z,96525.01
2023-05-21T12:25:19.316Z,96524.98
2023-05-21T12:27:51.792Z,96525.36
2023-05-21T12:30:18.981Z,96524.36
2023-05-21T12:32:45.854Z,96525.68
2023-05-21T12:35:23.067Z,96524.67
2023-05-21T12:37:50.418Z,96527.09
2023-05-21T12:40:17.396Z,96524.36
2023-05-21T12:42:44.267Z,96522.40
2023-05-21T12:45:11.159Z,96522.86
2023-05-21T12:47:37.887Z,96523.17
2023-05-21T12:50:11.065Z,96520.33
2023-05-21T12:52:43.449Z,96517.15
2023-05-21T12:55:12.829Z,96514.77
2023-05-21T12:57:39.546Z,96511.30
2023-05-21T13:00:07.201Z,96512.95
2023-05-21T13:02:38.062Z,96511.21
2023-05-21T13:05:06.737Z,96505.98
2023-05-21T13:07:35.571Z,96505.04
2023-05-21T13:10:03.434Z,96507.99
2023-05-21T13:12:31.652Z,96505.69
2023-05-21T13:15:06.239Z,96501.46
2023-05-21T13:17:34.952Z,96501.26
2023-05-21T13:20:20.722Z,96497.84
2023-05-21T13:22:50.414Z,96504.41
2023-05-21T13:25:23.785Z,96499.83
2023-05-21T13:27:52.000Z,96495.95
2023-05-21T13:30:20.244Z,96494.83
2023-05-21T13:32:47.787Z,96491.61
2023-05-21T13:35:15.809Z,96491.13
2023-05-21T13:37:43.280Z,96487.96
2023-05-21T13:40:11.324Z,96489.02
2023-05-21T13:42:38.363Z,96482.18
2023-05-21T13:45:06.999Z,96486.09
2023-05-21T13:47:35.643Z,96486.70
2023-05-21T13:50:03.929Z,96486.21
2023-05-21T13:52:30.442Z,96488.57
2023-05-21T13:54:57.090Z,96486.77
2023-05-21T13:57:26.099Z,96485.13
2023-05-21T13:59:52.874Z,96482.98
2023-05-21T14:02:20.319Z,96483.09
2023-05-21T14:04:48.179Z,96479.36
2023-05-21T14:07:14.961Z,96474.64
2023-05-21T14:09:41.823Z,96479.19
2023-05-21T14:12:08.648Z,96473.77
2023-05-21T14:14:35.515Z,96473.95
2023-05-21T14:17:05.749Z,96469.96
2023-05-21T14:19:32.491Z,96471.61
2023-05-21T14:21:59.280Z,96466.89
2023-05-21T14:24:26.264Z,96468.48
2023-05-21T14:26:52.874Z,96473.92
2023-05-21T14:29:24.586Z,96473.02
2023-05-21T14:31:53.766Z,96473.33
2023-05-21T14:34:20.525Z,96472.91
2023-05-21T14:36:48.181Z,96469.90
2023-05-21T14:39:14.853Z,96470.98
2023-05-21T14:41:41.660Z,96471.29
2023-05-21T14:44:08.305Z,96474.77
2023-05-21T14:46:36.147Z,96472.96
2023-05-21T14:49:03.137Z,96469.94
2023-05-21T14:51:30.804Z,96470.33
2023-05-21T14:53:57.545Z,96472.98
2023-05-21T14:56:26.720Z,96461.73
2023-05-21T14:58:54.075Z,96463.48
2023-05-21T15:01:24.180Z,96467.17
2023-05-21T15:03:50.998Z,96468.75
2023-05-21T15:06:20.204Z,96470.36
2023-05-21T15:08:49.148Z,96466.00
2023-05-21T15:11:19.852Z,96466.21
2023-05-21T15:13:47.358Z,96469.27
2023-05-21T15:16:25.088Z,96466.52
2023-05-21T15:18:58.877Z,96464.08
2023-05-21T15:21:27.983Z,96460.84
2023-05-21T15:23:54.884Z,96460.91
2023-05-21T15:26:24.869Z,96460.96
2023-05-21T15:28:52.971Z,96461.60
2023-05-21T15:31:20.628Z,96456.09
2023-05-21T15:33:47.686Z,96456.81
2023-05-21T15:36:15.458Z,96455.52
2023-05-21T15:38:42.106Z,96455.86
2023-05-21T15:41:08.694Z,96454.42
2023-05-21T15:43:35.298Z,96455.48
2023-05-21T15:46:01.889Z,96451.23
2023-05-21T15:48:28.470Z,96455.98
2023-05-21T15:50:55.237Z,96454.72
2023-05-21T15:53:21.836Z,96455.48
2023-05-21T15:55:48.465Z,96448.63
2023-05-21T15:58:15.670Z,96452.51
2023-05-21T16:00:42.277Z,96453.23
2023-05-21T16:03:09.086Z,96455.36
2023-05-21T16:05:35.880Z,96457.01
2023-05-21T16:08:02.866Z,96455.07
2023-05-21T16:10:29.561Z,96458.77
2023-05-21T16:12:56.255Z,96454.14
2023-05-21T16:15:22.843Z,96457.78
2023-05-21T16:17:49.562Z,96460.00
2023-05-21T16:20:18.195Z,96462.11
2023-05-21T16:22:44.814Z,96461.59
2023-05-21T16:25:11.402Z,96462.60
2023-05-21T16:27:38.143Z,96462.05
2023-05-21T16:30:06.763Z,96465.84
2023-05-21T16:32:33.426Z,96462.36
2023-05-21T16:35:00.517Z,96462.68
2023-05-21T16:37:27.241Z,96460.23
2023-05-21T16:39:53.795Z,96458.61
2023-05-21T16:42:20.545Z,96459.02
2023-05-21T16:44:47.719Z,96457.09
2023-05-21T16:47:14.550Z,96456.50
2023-05-21T16:49:41.275Z,96457.57
2023-05-21T16:52:08.708Z,96458.33
2023-05-21T16:54:35.460Z,96458.14
2023-05-21T16:57:02.093Z,96459.67
2023-05-21T16:59:32.384Z,96461.77
2023-05-21T17:01:59.128Z,96459.95
2023-05-21T17:04:25.869Z,96462.58
2023-05-21T17:06:52.664Z,96463.20
2023-05-21T17:09:19.256Z,96463.14
2023-05-21T17:11:45.794Z,96465.06
2023-05-21T17:14:17.563Z,96464.06
2023-05-21T17:16:50.294Z,96463.95
2023-05-21T17:19:16.915Z,96461.70
2023-05-21T17:21:43.567Z,96460.55
2023-05-21T17:24:10.641Z,96458.62
2023-05-21T17:26:37.266Z,96457.29
2023-05-21T17:29:03.986Z,96455.17
2023-05-21T17:31:32.508Z,96459.83
2023-05-21T17:34:00.190Z,96456.18
2023-05-21T17:36:26.978Z,96456.42
2023-05-21T17:38:53.585Z,96459.08
2023-05-21T17:41:21.118Z,96459.22
2023-05-21T17:43:47.711Z,96462.66
2023-05-21T17:46:17.072Z,96465.26
2023-05-21T17:48:44.824Z,96466.80
2023-05-21T17:51:12.283Z,96470.56
2023-05-21T17:53:40.148Z,96467.05
2023-05-21T17:56:07.422Z,96470.79
2023-05-21T17:58:34.231Z,96473.28
2023-05-21T18:01:02.597Z,96473.67
2023-05-21T18:03:30.252Z,96479.76
2023-05-21T18:05:56.823Z,96477.15
2023-05-21T18:08:23.491Z,96476.30
2023-05-21T18:10:50.181Z,96476.91
2023-05-21T18:13:16.837Z,96474.70
2023-05-21T18:15:43.545Z,96476.55
2023-05-21T18:18:19.020Z,96478.23
2023-05-21T18:20:47.815Z,96475.84
2023-05-21T18:23:14.486Z,96482.48
2023-05-21T18:25:41.331Z,96484.36
2023-05-21T18:28:08.560Z,96485.34
2023-05-21T18:30:36.212Z,96487.18
2023-05-21T18:33:03.304Z,96487.20
2023-05-21T18:35:31.172Z,96483.94
2023-05-21T18:37:57.804Z,96490.51
2023-05-21T18:40:27.967Z,96486.84
2023-05-21T18:43:00.153Z,96488.52
2023-05-21T18:45:27.591Z,96488.02
2023-05-21T18:47:55.226Z,96488.83
2023-05-21T18:50:23.348Z,96489.02
2023-05-21T18:52:54.816Z,96487.12
2023-05-21T18:55:22.052Z,96491.32
2023-05-21T18:57:54.206Z,96495.91
2023-05-21T19:00:21.382Z,96497.64
2023-05-21T19:02:49.121Z,96495.09
2023-05-21T19:05:16.861Z,96496.12
2023-05-21T19:07:43.738Z,96499.58
2023-05-21T19:10:11.191Z,96500.04
2023-05-21T19:12:41.116Z,96504.39
2023-05-21T19:15:09.269Z,96504.36
2023-05-21T19:17:39.133Z,96503.55
2023-05-21T19:20:13.525Z,96505.33
2023-05-21T19:22:40.223Z,96510.15
2023-05-21T19:25:07.656Z,96505.76
2023-05-21T19:27:37.217Z,96512.52
2023-05-21T19:30:14.968Z,96515.45
2023-05-21T19:32:45.879Z,96513.59
2023-05-21T19:35:12.707Z,96512.30
2023-05-21T19:37:39.251Z,96510.31
2023-05-21T19:40:06.914Z,96501.67
2023-05-21T19:42:34.097Z,96500.23
2023-05-21T19:45:00.766Z,96501.95
2023-05-21T19:47:31.580Z,96495.27
2023-05-21T19:49:58.392Z,96496.91
2023-05-21T19:52:25.617Z,96490.54
2023-05-21T19:54:52.252Z,96489.02
2023-05-21T19:57:19.212Z,96485.73
2023-05-21T19:59:45.806Z,96486.69
2023-05-21T20:02:14.472Z,96484.50
2023-05-21T20:04:41.274Z,96481.86
2023-05-21T20:07:07.955Z,96484.02
2023-05-21T20:09:34.633Z,96484.05
2023-05-21T20:12:01.499Z,96481.30
2023-05-21T20:14:28.388Z,96481.05
2023-05-21T20:16:57.754Z,96476.79
2023-05-21T20:19:24.500Z,96485.85
2023-05-21T20:21:51.306Z,96488.48
2023-05-21T20:24:18.033Z,96494.20
2023-05-21T20:26:49.019Z,96498.10
2023-05-21T20:29:18.473Z,96499.91
2023-05-21T20:31:47.585Z,96498.67
2023-05-21T20:34:16.923Z,96497.52
2023-05-21T20:36:43.583Z,96496.02
2023-05-21T20:39:11.798Z,96498.17
2023-05-21T20:41:41.512Z,96498.14
2023-05-21T20:44:44.756Z,96497.91
2023-05-21T20:47:11.472Z,96500.41
2023-05-21T20:49:39.302Z,96502.16
2023-05-21T20:52:07.031Z,96498.09
2023-05-21T20:54:34.844Z,96501.77
2023-05-21T20:57:03.568Z,96499.89
2023-05-21T20:59:30.862Z,96501.04
2023-05-21T21:02:07.388Z,96496.14
2023-05-21T21:04:34.283Z,96499.55
2023-05-21T21:07:01.299Z,96496.94
2023-05-21T21:09:27.914Z,96498.92
2023-05-21T21:11:55.442Z,96499.13
2023-05-21T21:14:21.999Z,96501.45
2023-05-21T21:16:51.396Z,96500.39
2023-05-21T21:19:18.625Z,96499.69
2023-05-21T21:21:47.939Z,96502.98
2023-05-21T21:24:14.550Z,96498.96
2023-05-21T21:26:43.815Z,96496.88
2023-05-21T21:29:10.438Z,96495.73
2023-05-21T21:31:37.118Z,96497.66
2023-05-21T21:34:03.885Z,96499.05
2023-05-21T21:36:30.737Z,96501.89
2023-05-21T21:38:57.357Z,96501.27
2023-05-21T21:41:24.239Z,96500.73
2023-05-21T21:43:55.122Z,96500.61
2023-05-21T21:46:21.890Z,96500.48
2023-05-21T21:48:48.618Z,96498.17
2023-05-21T21:51:15.788Z,96494.50
2023-05-21T21:53:42.760Z,96496.98
2023-05-21T21:56:10.289Z,96498.52
2023-05-21T21:58:36.989Z,96501.53
2023-05-21T22:01:03.885Z,96505.90
2023-05-21T22:03:32.804Z,96503.67
2023-05-21T22:06:00.259Z,96505.09
2023-05-21T22:08:28.155Z,96502.91
2023-05-21T22:10:55.526Z,96499.92
2023-05-21T22:13:24.362Z,96501.38
2023-05-21T22:15:51.143Z,96500.33
2023-05-21T22:18:25.148Z,96498.65
2023-05-21T22:20:59.154Z,96499.23
2023-05-21T22:23:25.799Z,96501.48
2023-05-21T22:25:52.360Z,96501.95
2023-05-21T22:28:21.809Z,96495.21
2023-05-21T22:30:49.407Z,96493.38
2023-05-21T22:33:16.229Z,96488.27
2023-05-21T22:35:42.840Z,96486.79
2023-05-21T22:38:09.382Z,96489.49
2023-05-21T22:40:37.400Z,96483.87
2023-05-21T22:43:04.336Z,96481.23
2023-05-21T22:45:30.934Z,96482.66
2023-05-21T22:48:01.047Z,96479.27
2023-05-21T22:50:28.810Z,96479.30
2023-05-21T22:52:55.501Z,96478.48
2023-05-21T22:55:22.058Z,96476.27
2023-05-21T22:57:48.640Z,96480.23
2023-05-21T23:00:18.464Z,96475.96
2023-05-21T23:02:46.321Z,96475.14
2023-05-21T23:05:13.601Z,96474.04
2023-05-21T23:07:40.689Z,96473.88
2023-05-21T23:10:08.430Z,96470.48
2023-05-21T23:12:36.245Z,96471.00
2023-05-21T23:15:06.919Z,96473.02
2023-05-21T23:17:33.948Z,96474.02
2023-05-21T23:20:00.602Z,96474.90
2023-05-21T23:22:27.223Z,96476.11
2023-05-21T23:24:54.014Z,96474.82
2023-05-21T23:27:20.567Z,96476.65
2023-05-21T23:29:47.266Z,96478.13
2023-05-21T23:32:13.972Z,96479.09
2023-05-21T23:34:41.412Z,96480.23
2023-05-21T23:37:08.206Z,96480.83
2023-05-21T23:39:36.053Z,96480.11
2023-05-21T23:42:03.594Z,96480.41
2023-05-21T23:44:30.154Z,96475.32
2023-05-21T23:46:56.712Z,96474.14
2023-05-21T23:49:23.288Z,96470.08
2023-05-21T23:51:50.082Z,96469.88
2023-05-21T23:54:17.116Z,96466.21
2023-05-21T23:56:45.122Z,96465.30
2023-05-21T23:59:11.718Z,96462.19
